Emerald Leader — C6WP4 — position and weather

sailwx.info

Track history (hours):
 
Tides and Currents Weather Stations Pressure Air Temp Water Temp Dewpoint Dewpoint Depression Visibility Wind Speed Wind Dir Waves Ship Positions

Emerald Leader

Last reported at 2017-Nov-18 02:29 UTC. Time now 2017-Nov-18 02:57 UTC.
Position N 51°18' E 003°14'.

Length 176 m; draft 8.6 m.

Type: Cargo ship. MMSI: 308688000.

Date/timePositionNaut miles runAvg speedWind from/ knotsBaromVisibWave heightAir tempDewpointWater temp
2017-Nov-18 02:29N 51°18' E 003°14'0 0.0
2017-Nov-18 01:59N 51°18' E 003°14'0 0.0
2017-Nov-18 01:29N 51°18' E 003°14'0 0.0
2017-Nov-18 00:59N 51°18' E 003°14'0 0.0
2017-Nov-18 00:29N 51°18' E 003°14'0 0.0
2017-Nov-17 23:59N 51°18' E 003°14'0 0.0
2017-Nov-17 23:29N 51°18' E 003°14'0 0.0
2017-Nov-17 22:59N 51°18' E 003°14'0 0.0
2017-Nov-17 22:29N 51°18' E 003°14'0 0.0
2017-Nov-17 21:59N 51°18' E 003°14'0 0.0
2017-Nov-17 21:29N 51°18' E 003°14'0 0.0
2017-Nov-17 20:59N 51°18' E 003°14'0 0.0
2017-Nov-17 20:29N 51°18' E 003°14'0 0.0
2017-Nov-17 19:59N 51°18' E 003°14'0 0.0
2017-Nov-17 19:29N 51°18' E 003°14'0 0.0
2017-Nov-17 18:59N 51°18' E 003°14'0 0.0
2017-Nov-17 18:29N 51°18' E 003°14'0 0.0
2017-Nov-17 17:59N 51°18' E 003°14'0 0.0
2017-Nov-17 17:29N 51°18' E 003°14'0 0.0
2017-Nov-17 16:59N 51°18' E 003°14'0 0.0
2017-Nov-17 16:29N 51°18' E 003°14'0 0.0
2017-Nov-17 15:59N 51°18' E 003°14'0 0.0
2017-Nov-17 15:26N 51°18' E 003°14'0 0.0
2017-Nov-17 14:59N 51°18' E 003°14'0 0.0
2017-Nov-17 14:29N 51°18' E 003°14'0 0.0
2017-Nov-17 13:59N 51°18' E 003°14'0 0.0
2017-Nov-17 13:26N 51°18' E 003°14'0 0.0
2017-Nov-17 12:59N 51°18' E 003°14'0 0.0
2017-Nov-17 12:29N 51°18' E 003°14'0 0.0
2017-Nov-17 11:59N 51°18' E 003°14'0 0.0
2017-Nov-17 11:29N 51°18' E 003°14'0 0.0
2017-Nov-17 10:59N 51°18' E 003°14'0 0.0
2017-Nov-17 10:29N 51°18' E 003°14'0 0.0
2017-Nov-17 09:59N 51°18' E 003°14'0 0.0
2017-Nov-17 09:29N 51°18' E 003°14'0 0.0
2017-Nov-17 08:59N 51°18' E 003°14'0 0.0
2017-Nov-17 08:29N 51°18' E 003°14'0 0.0
2017-Nov-17 07:59N 51°18' E 003°14'0 0.0
2017-Nov-17 07:29N 51°18' E 003°14'0 0.0
2017-Nov-17 06:59N 51°18' E 003°14'0 0.2
2017-Nov-17 06:30N 51°18' E 003°14'2 3.9
2017-Nov-17 05:58N 51°20' E 003°13'0 0.0
2017-Nov-17 05:28N 51°20' E 003°13'0 0.0
2017-Nov-17 04:58N 51°20' E 003°13'0 0.0
2017-Nov-17 04:28N 51°20' E 003°13'1 1.4
2017-Nov-17 04:00N 51°21' E 003°13'4 8.7
2017-Nov-17 03:31N 51°24' E 003°08'815.5
2017-Nov-17 03:00N 51°25' E 002°55'713.2
2017-Nov-17 02:30N 51°24' E 002°45'6 1.6
2017-Nov-16 22:46N 51°29' E 002°41'94 8.8
2017-Nov-16 12:03N 52°53' E 003°51'114.5
2017-Nov-16 11:58N 52°54' E 003°52'914.9
2017-Nov-16 11:22N 52°59' E 004°03'14214.3
2017-Nov-16 01:28N 53°58' E 007°40'1014.0
2017-Nov-16 00:45N 53°52' E 007°54'417.5
2017-Nov-16 00:30N 53°51' E 008°01'918.7
2017-Nov-16 00:00N 53°45' E 008°13'917.9
2017-Nov-15 23:30N 53°39' E 008°24'713.4
2017-Nov-15 23:00N 53°34' E 008°32'1 1.1
2017-Nov-15 22:31N 53°34' E 008°33'0 0.9
2017-Nov-15 21:59N 53°35' E 008°34'0 0.0
2017-Nov-15 21:29N 53°35' E 008°34'0 0.0
2017-Nov-15 20:59N 53°35' E 008°34'0 0.0
2017-Nov-15 20:29N 53°35' E 008°34'0 0.0
2017-Nov-15 19:59N 53°35' E 008°34'0 0.0
2017-Nov-15 19:29N 53°35' E 008°34'0 0.0
2017-Nov-15 18:59N 53°35' E 008°34'0 0.0
2017-Nov-15 18:29N 53°35' E 008°34'0 0.0
2017-Nov-15 17:59N 53°35' E 008°34'0 0.0
2017-Nov-15 17:29N 53°35' E 008°34'0 0.0
2017-Nov-15 16:59N 53°35' E 008°34'0 0.0
2017-Nov-15 16:29N 53°35' E 008°34'0 0.0
2017-Nov-15 15:59N 53°35' E 008°34'0 0.0
2017-Nov-15 15:29N 53°35' E 008°34'0 0.0
2017-Nov-15 14:59N 53°35' E 008°34'0 0.0
2017-Nov-15 14:29N 53°35' E 008°34'0 0.0
2017-Nov-15 13:59N 53°35' E 008°34'0 0.0
2017-Nov-15 13:29N 53°35' E 008°34'0 0.0
2017-Nov-15 12:59N 53°35' E 008°34'0 0.0
2017-Nov-15 12:29N 53°35' E 008°34'0 0.0
2017-Nov-15 11:59N 53°35' E 008°34'0 0.0
2017-Nov-15 11:29N 53°35' E 008°34'0 0.0
2017-Nov-15 10:59N 53°35' E 008°34'0 0.0
2017-Nov-15 10:26N 53°35' E 008°34'0 0.0
2017-Nov-15 09:59N 53°35' E 008°34'0 0.0
2017-Nov-15 09:29N 53°35' E 008°34'0 0.0
2017-Nov-15 08:59N 53°35' E 008°34'0 0.0
2017-Nov-15 08:29N 53°35' E 008°34'0 0.0
2017-Nov-15 07:59N 53°35' E 008°34'0 0.0
2017-Nov-15 07:26N 53°35' E 008°34'0 0.0
2017-Nov-15 06:59N 53°35' E 008°34'0 0.0
2017-Nov-15 06:29N 53°35' E 008°34'0 0.0
2017-Nov-15 05:59N 53°35' E 008°34'0 0.0
2017-Nov-15 05:29N 53°35' E 008°34'0 0.0
2017-Nov-15 04:59N 53°35' E 008°34'0 0.0
2017-Nov-15 04:29N 53°35' E 008°34'0 0.0
2017-Nov-15 03:59N 53°35' E 008°34'0 0.0
2017-Nov-15 03:29N 53°35' E 008°34'0 0.0
2017-Nov-15 02:59N 53°35' E 008°34'0 1.0
2017-Nov-15 02:30N 53°34' E 008°33'0 0.7
2017-Nov-15 02:00N 53°34' E 008°33'2 3.6
2017-Nov-15 01:30N 53°35' E 008°31'612.1
2017-Nov-15 01:00N 53°39' E 008°24'712.9
2017-Nov-15 00:30N 53°44' E 008°15'713.6
2017-Nov-15 00:00N 53°48' E 008°07'611.8
2017-Nov-14 23:30N 53°51' E 007°59'711.0
2017-Nov-14 22:54N 53°53' E 007°47'4 9.7
2017-Nov-14 22:30N 53°53' E 007°41'5 3.5
2017-Nov-14 21:02N 53°54' E 007°32'11514.3
2017-Nov-14 13:01N 53°13' E 004°32'016.4
2017-Nov-14 13:00N 53°13' E 004°32'816.4
2017-Nov-14 12:30N 53°06' E 004°25'816.3
2017-Nov-14 12:00N 52°59' E 004°19'816.1
2017-Nov-14 11:30N 52°51' E 004°14'816.1
2017-Nov-14 11:00N 52°45' E 004°06'816.0
2017-Nov-14 10:30N 52°39' E 003°57'815.8
2017-Nov-14 10:01N 52°32' E 003°49'1015.6
2017-Nov-14 09:21N 52°24' E 003°40'615.4
2017-Nov-14 08:59N 52°19' E 003°36'715.2
2017-Nov-14 08:30N 52°12' E 003°30'2014.7
2017-Nov-14 07:10N 51°53' E 003°22'614.4
2017-Nov-14 06:45N 51°48' E 003°18'414.3
2017-Nov-14 06:30N 51°45' E 003°15'612.0
2017-Nov-14 06:00N 51°39' E 003°12'815.1
2017-Nov-14 05:31N 51°32' E 003°08'815.2
2017-Nov-14 05:00N 51°26' E 003°00'715.0
2017-Nov-14 04:31N 51°24' E 003°12'917.5
2017-Nov-14 04:01N 51°25' E 003°26'917.0
2017-Nov-14 03:30N 51°27' E 003°39'1 2.5
2017-Nov-14 02:55N 51°28' E 003°41'0 0.0
2017-Nov-14 02:25N 51°28' E 003°41'0 0.0
2017-Nov-14 01:55N 51°28' E 003°41'0 0.0
2017-Nov-14 01:19N 51°28' E 003°41'0 0.0
2017-Nov-14 00:55N 51°28' E 003°41'0 0.0
2017-Nov-14 00:25N 51°28' E 003°41'0 0.0
2017-Nov-13 23:55N 51°28' E 003°41'0 0.0
2017-Nov-13 22:55N 51°28' E 003°41'0 0.0
2017-Nov-13 22:25N 51°28' E 003°41'0 0.0
2017-Nov-13 21:55N 51°28' E 003°41'37 1.9
2017-Nov-13 02:00N 51°28' E 002°41'1 1.1
2017-Nov-13 00:49N 51°30' E 002°41'1 2.9
2017-Nov-13 00:22N 51°28' E 002°41'0 0.5
2017-Nov-12 23:59N 51°28' E 002°40'1 2.4
2017-Nov-12 23:29N 51°30' E 002°41'3 4.9
2017-Nov-12 22:46N 51°26' E 002°41'611.5
2017-Nov-12 22:13N 51°22' E 002°33'310.6
2017-Nov-12 21:54N 51°21' E 002°28'513.3
2017-Nov-12 21:30N 51°20' E 002°20'612.2
2017-Nov-12 21:00N 51°16' E 002°13'611.7
2017-Nov-12 20:30N 51°13' E 002°05'612.1
2017-Nov-12 20:00N 51°10' E 001°56'612.3
2017-Nov-12 19:30N 51°07' E 001°48'611.4
2017-Nov-12 19:00N 51°02' E 001°42'612.5
2017-Nov-12 18:30N 50°58' E 001°35'713.1
2017-Nov-12 18:00N 50°53' E 001°29'6013.2
2017-Nov-12 13:28N 50°19' E 000°10'715.3
2017-Nov-12 13:00N 50°18' W 000°00'815.0
2017-Nov-12 12:30N 50°15' W 000°12'2214.4
2017-Nov-12 10:59N 50°10' W 000°45'613.6
2017-Nov-12 10:31N 50°09' W 000°55'713.3
2017-Nov-12 10:01N 50°07' W 001°05'713.1
2017-Nov-12 09:31N 50°06' W 001°15'612.8
2017-Nov-12 09:00N 50°04' W 001°24'612.5
2017-Nov-12 08:31N 50°02' W 001°34'612.4
2017-Nov-12 08:01N 50°00' W 001°43'612.5
2017-Nov-12 07:30N 49°59' W 001°53'714.3
2017-Nov-12 07:00N 49°58' W 002°03'713.7
2017-Nov-12 06:30N 49°56' W 002°14'814.3
2017-Nov-12 05:58N 49°54' W 002°25'714.9
2017-Nov-12 05:30N 49°53' W 002°36'915.2
2017-Nov-12 04:55N 49°50' W 002°49'1215.3
2017-Nov-12 04:08N 49°44' W 003°06'415.4
2017-Nov-12 03:51N 49°42' W 003°12'8715.6
2017-Nov-11 22:17N 48°58' W 005°06'416.0
2017-Nov-11 22:00N 48°56' W 005°12'1015.6
2017-Nov-11 21:23N 48°51' W 005°25'815.6
2017-Nov-11 20:53N 48°47' W 005°35'715.0
2017-Nov-11 20:25N 48°41' W 005°41'1415.0
2017-Nov-11 19:29N 48°28' W 005°50'1011.9
2017-Nov-11 18:38N 48°19' W 005°57'3 9.1
2017-Nov-11 18:18N 48°17' W 005°59'3 9.7
2017-Nov-11 18:00N 48°14' W 006°01'1014.1
2017-Nov-11 17:16N 48°05' W 006°08'514.0
2017-Nov-11 16:54N 48°01' W 006°12'1013.9
2017-Nov-11 16:10N 47°52' W 006°19'413.5
2017-Nov-11 15:53N 47°48' W 006°22'613.7
2017-Nov-11 15:27N 47°43' W 006°26'813.5
2017-Nov-11 14:54N 47°37' W 006°32'613.1
2017-Nov-11 14:27N 47°31' W 006°35'613.4
2017-Nov-11 13:58N 47°25' W 006°39'814.0
2017-Nov-11 13:24N 47°19' W 006°45'814.2
2017-Nov-11 12:52N 47°12' W 006°51'514.0
2017-Nov-11 12:29N 47°07' W 006°54'713.9
2017-Nov-11 11:56N 47°00' W 006°59'614.0
2017-Nov-11 11:30N 46°55' W 007°03'46613.8
2017-Nov-10 01:48N 39°25' W 009°52'413.6
2017-Nov-10 01:31N 39°21' W 009°52'713.7
2017-Nov-10 01:00N 39°14' W 009°52'713.4
2017-Nov-10 00:30N 39°08' W 009°52'713.4
2017-Nov-10 00:00N 39°01' W 009°52'713.4
2017-Nov-09 23:30N 38°54' W 009°52'713.8
2017-Nov-09 23:01N 38°48' W 009°52'713.9
2017-Nov-09 22:31N 38°41' W 009°52'713.8
2017-Nov-09 22:00N 38°34' W 009°50'713.7
2017-Nov-09 21:30N 38°27' W 009°48'713.5
2017-Nov-09 21:00N 38°21' W 009°46'713.4
2017-Nov-09 20:30N 38°14' W 009°44'713.2
2017-Nov-09 19:58N 38°07' W 009°43'613.9
2017-Nov-09 19:30N 38°01' W 009°40'  
Track history (hours):
 
Tides and Currents Weather Stations Pressure Air Temp Water Temp Dewpoint Dewpoint Depression Visibility Wind Speed Wind Dir Waves Ship Positions

Emerald Leader

Last reported at 2017-Nov-18 02:29 UTC. Time now 2017-Nov-18 02:57 UTC.
Position N 51°18' E 003°14'.

Length 176 m; draft 8.6 m.

Type: Cargo ship. MMSI: 308688000.

Date/timePositionNaut miles runAvg speedWind from/ knotsBaromVisibWave heightAir tempDewpointWater temp
2017-Nov-18 02:29N 51°18' E 003°14'0 0.0
2017-Nov-18 01:59N 51°18' E 003°14'0 0.0
2017-Nov-18 01:29N 51°18' E 003°14'0 0.0
2017-Nov-18 00:59N 51°18' E 003°14'0 0.0
2017-Nov-18 00:29N 51°18' E 003°14'0 0.0
2017-Nov-17 23:59N 51°18' E 003°14'0 0.0
2017-Nov-17 23:29N 51°18' E 003°14'0 0.0
2017-Nov-17 22:59N 51°18' E 003°14'0 0.0
2017-Nov-17 22:29N 51°18' E 003°14'0 0.0
2017-Nov-17 21:59N 51°18' E 003°14'0 0.0
2017-Nov-17 21:29N 51°18' E 003°14'0 0.0
2017-Nov-17 20:59N 51°18' E 003°14'0 0.0
2017-Nov-17 20:29N 51°18' E 003°14'0 0.0
2017-Nov-17 19:59N 51°18' E 003°14'0 0.0
2017-Nov-17 19:29N 51°18' E 003°14'0 0.0
2017-Nov-17 18:59N 51°18' E 003°14'0 0.0
2017-Nov-17 18:29N 51°18' E 003°14'0 0.0
2017-Nov-17 17:59N 51°18' E 003°14'0 0.0
2017-Nov-17 17:29N 51°18' E 003°14'0 0.0
2017-Nov-17 16:59N 51°18' E 003°14'0 0.0
2017-Nov-17 16:29N 51°18' E 003°14'0 0.0
2017-Nov-17 15:59N 51°18' E 003°14'0 0.0
2017-Nov-17 15:26N 51°18' E 003°14'0 0.0
2017-Nov-17 14:59N 51°18' E 003°14'0 0.0
2017-Nov-17 14:29N 51°18' E 003°14'0 0.0
2017-Nov-17 13:59N 51°18' E 003°14'0 0.0
2017-Nov-17 13:26N 51°18' E 003°14'0 0.0
2017-Nov-17 12:59N 51°18' E 003°14'0 0.0
2017-Nov-17 12:29N 51°18' E 003°14'0 0.0
2017-Nov-17 11:59N 51°18' E 003°14'0 0.0
2017-Nov-17 11:29N 51°18' E 003°14'0 0.0
2017-Nov-17 10:59N 51°18' E 003°14'0 0.0
2017-Nov-17 10:29N 51°18' E 003°14'0 0.0
2017-Nov-17 09:59N 51°18' E 003°14'0 0.0
2017-Nov-17 09:29N 51°18' E 003°14'0 0.0
2017-Nov-17 08:59N 51°18' E 003°14'0 0.0
2017-Nov-17 08:29N 51°18' E 003°14'0 0.0
2017-Nov-17 07:59N 51°18' E 003°14'0 0.0
2017-Nov-17 07:29N 51°18' E 003°14'0 0.0
2017-Nov-17 06:59N 51°18' E 003°14'0 0.2
2017-Nov-17 06:30N 51°18' E 003°14'2 3.9
2017-Nov-17 05:58N 51°20' E 003°13'0 0.0
2017-Nov-17 05:28N 51°20' E 003°13'0 0.0
2017-Nov-17 04:58N 51°20' E 003°13'0 0.0
2017-Nov-17 04:28N 51°20' E 003°13'1 1.4
2017-Nov-17 04:00N 51°21' E 003°13'4 8.7
2017-Nov-17 03:31N 51°24' E 003°08'815.5
2017-Nov-17 03:00N 51°25' E 002°55'713.2
2017-Nov-17 02:30N 51°24' E 002°45'6 1.6
2017-Nov-16 22:46N 51°29' E 002°41'94 8.8
2017-Nov-16 12:03N 52°53' E 003°51'114.5
2017-Nov-16 11:58N 52°54' E 003°52'914.9
2017-Nov-16 11:22N 52°59' E 004°03'14214.3
2017-Nov-16 01:28N 53°58' E 007°40'1014.0
2017-Nov-16 00:45N 53°52' E 007°54'417.5
2017-Nov-16 00:30N 53°51' E 008°01'918.7
2017-Nov-16 00:00N 53°45' E 008°13'917.9
2017-Nov-15 23:30N 53°39' E 008°24'713.4
2017-Nov-15 23:00N 53°34' E 008°32'1 1.1
2017-Nov-15 22:31N 53°34' E 008°33'0 0.9
2017-Nov-15 21:59N 53°35' E 008°34'0 0.0
2017-Nov-15 21:29N 53°35' E 008°34'0 0.0
2017-Nov-15 20:59N 53°35' E 008°34'0 0.0
2017-Nov-15 20:29N 53°35' E 008°34'0 0.0
2017-Nov-15 19:59N 53°35' E 008°34'0 0.0
2017-Nov-15 19:29N 53°35' E 008°34'0 0.0
2017-Nov-15 18:59N 53°35' E 008°34'0 0.0
2017-Nov-15 18:29N 53°35' E 008°34'0 0.0
2017-Nov-15 17:59N 53°35' E 008°34'0 0.0
2017-Nov-15 17:29N 53°35' E 008°34'0 0.0
2017-Nov-15 16:59N 53°35' E 008°34'0 0.0
2017-Nov-15 16:29N 53°35' E 008°34'0 0.0
2017-Nov-15 15:59N 53°35' E 008°34'0 0.0
2017-Nov-15 15:29N 53°35' E 008°34'0 0.0
2017-Nov-15 14:59N 53°35' E 008°34'0 0.0
2017-Nov-15 14:29N 53°35' E 008°34'0 0.0
2017-Nov-15 13:59N 53°35' E 008°34'0 0.0
2017-Nov-15 13:29N 53°35' E 008°34'0 0.0
2017-Nov-15 12:59N 53°35' E 008°34'0 0.0
2017-Nov-15 12:29N 53°35' E 008°34'0 0.0
2017-Nov-15 11:59N 53°35' E 008°34'0 0.0
2017-Nov-15 11:29N 53°35' E 008°34'0 0.0
2017-Nov-15 10:59N 53°35' E 008°34'0 0.0
2017-Nov-15 10:26N 53°35' E 008°34'0 0.0
2017-Nov-15 09:59N 53°35' E 008°34'0 0.0
2017-Nov-15 09:29N 53°35' E 008°34'0 0.0
2017-Nov-15 08:59N 53°35' E 008°34'0 0.0
2017-Nov-15 08:29N 53°35' E 008°34'0 0.0
2017-Nov-15 07:59N 53°35' E 008°34'0 0.0
2017-Nov-15 07:26N 53°35' E 008°34'0 0.0
2017-Nov-15 06:59N 53°35' E 008°34'0 0.0
2017-Nov-15 06:29N 53°35' E 008°34'0 0.0
2017-Nov-15 05:59N 53°35' E 008°34'0 0.0
2017-Nov-15 05:29N 53°35' E 008°34'0 0.0
2017-Nov-15 04:59N 53°35' E 008°34'0 0.0
2017-Nov-15 04:29N 53°35' E 008°34'0 0.0
2017-Nov-15 03:59N 53°35' E 008°34'0 0.0
2017-Nov-15 03:29N 53°35' E 008°34'0 0.0
2017-Nov-15 02:59N 53°35' E 008°34'0 1.0
2017-Nov-15 02:30N 53°34' E 008°33'0 0.7
2017-Nov-15 02:00N 53°34' E 008°33'2 3.6
2017-Nov-15 01:30N 53°35' E 008°31'612.1
2017-Nov-15 01:00N 53°39' E 008°24'712.9
2017-Nov-15 00:30N 53°44' E 008°15'713.6
2017-Nov-15 00:00N 53°48' E 008°07'611.8
2017-Nov-14 23:30N 53°51' E 007°59'711.0
2017-Nov-14 22:54N 53°53' E 007°47'4 9.7
2017-Nov-14 22:30N 53°53' E 007°41'5 3.5
2017-Nov-14 21:02N 53°54' E 007°32'11514.3
2017-Nov-14 13:01N 53°13' E 004°32'016.4
2017-Nov-14 13:00N 53°13' E 004°32'816.4
2017-Nov-14 12:30N 53°06' E 004°25'816.3
2017-Nov-14 12:00N 52°59' E 004°19'816.1
2017-Nov-14 11:30N 52°51' E 004°14'816.1
2017-Nov-14 11:00N 52°45' E 004°06'816.0
2017-Nov-14 10:30N 52°39' E 003°57'815.8
2017-Nov-14 10:01N 52°32' E 003°49'1015.6
2017-Nov-14 09:21N 52°24' E 003°40'615.4
2017-Nov-14 08:59N 52°19' E 003°36'715.2
2017-Nov-14 08:30N 52°12' E 003°30'2014.7
2017-Nov-14 07:10N 51°53' E 003°22'614.4
2017-Nov-14 06:45N 51°48' E 003°18'414.3
2017-Nov-14 06:30N 51°45' E 003°15'612.0
2017-Nov-14 06:00N 51°39' E 003°12'815.1
2017-Nov-14 05:31N 51°32' E 003°08'815.2
2017-Nov-14 05:00N 51°26' E 003°00'715.0
2017-Nov-14 04:31N 51°24' E 003°12'917.5
2017-Nov-14 04:01N 51°25' E 003°26'917.0
2017-Nov-14 03:30N 51°27' E 003°39'1 2.5
2017-Nov-14 02:55N 51°28' E 003°41'0 0.0
2017-Nov-14 02:25N 51°28' E 003°41'0 0.0
2017-Nov-14 01:55N 51°28' E 003°41'0 0.0
2017-Nov-14 01:19N 51°28' E 003°41'0 0.0
2017-Nov-14 00:55N 51°28' E 003°41'0 0.0
2017-Nov-14 00:25N 51°28' E 003°41'0 0.0
2017-Nov-13 23:55N 51°28' E 003°41'0 0.0
2017-Nov-13 22:55N 51°28' E 003°41'0 0.0
2017-Nov-13 22:25N 51°28' E 003°41'0 0.0
2017-Nov-13 21:55N 51°28' E 003°41'37 1.9
2017-Nov-13 02:00N 51°28' E 002°41'1 1.1
2017-Nov-13 00:49N 51°30' E 002°41'1 2.9
2017-Nov-13 00:22N 51°28' E 002°41'0 0.5
2017-Nov-12 23:59N 51°28' E 002°40'1 2.4
2017-Nov-12 23:29N 51°30' E 002°41'3 4.9
2017-Nov-12 22:46N 51°26' E 002°41'611.5
2017-Nov-12 22:13N 51°22' E 002°33'310.6
2017-Nov-12 21:54N 51°21' E 002°28'513.3
2017-Nov-12 21:30N 51°20' E 002°20'612.2
2017-Nov-12 21:00N 51°16' E 002°13'611.7
2017-Nov-12 20:30N 51°13' E 002°05'612.1
2017-Nov-12 20:00N 51°10' E 001°56'612.3
2017-Nov-12 19:30N 51°07' E 001°48'611.4
2017-Nov-12 19:00N 51°02' E 001°42'612.5
2017-Nov-12 18:30N 50°58' E 001°35'713.1
2017-Nov-12 18:00N 50°53' E 001°29'6013.2
2017-Nov-12 13:28N 50°19' E 000°10'715.3
2017-Nov-12 13:00N 50°18' W 000°00'815.0
2017-Nov-12 12:30N 50°15' W 000°12'2214.4
2017-Nov-12 10:59N 50°10' W 000°45'613.6
2017-Nov-12 10:31N 50°09' W 000°55'713.3
2017-Nov-12 10:01N 50°07' W 001°05'713.1
2017-Nov-12 09:31N 50°06' W 001°15'612.8
2017-Nov-12 09:00N 50°04' W 001°24'612.5
2017-Nov-12 08:31N 50°02' W 001°34'612.4
2017-Nov-12 08:01N 50°00' W 001°43'612.5
2017-Nov-12 07:30N 49°59' W 001°53'714.3
2017-Nov-12 07:00N 49°58' W 002°03'713.7
2017-Nov-12 06:30N 49°56' W 002°14'814.3
2017-Nov-12 05:58N 49°54' W 002°25'714.9
2017-Nov-12 05:30N 49°53' W 002°36'915.2
2017-Nov-12 04:55N 49°50' W 002°49'1215.3
2017-Nov-12 04:08N 49°44' W 003°06'415.4
2017-Nov-12 03:51N 49°42' W 003°12'8715.6
2017-Nov-11 22:17N 48°58' W 005°06'416.0
2017-Nov-11 22:00N 48°56' W 005°12'1015.6
2017-Nov-11 21:23N 48°51' W 005°25'815.6
2017-Nov-11 20:53N 48°47' W 005°35'715.0
2017-Nov-11 20:25N 48°41' W 005°41'1415.0
2017-Nov-11 19:29N 48°28' W 005°50'1011.9
2017-Nov-11 18:38N 48°19' W 005°57'3 9.1
2017-Nov-11 18:18N 48°17' W 005°59'3 9.7
2017-Nov-11 18:00N 48°14' W 006°01'1014.1
2017-Nov-11 17:16N 48°05' W 006°08'514.0
2017-Nov-11 16:54N 48°01' W 006°12'1013.9
2017-Nov-11 16:10N 47°52' W 006°19'413.5
2017-Nov-11 15:53N 47°48' W 006°22'613.7
2017-Nov-11 15:27N 47°43' W 006°26'813.5
2017-Nov-11 14:54N 47°37' W 006°32'613.1
2017-Nov-11 14:27N 47°31' W 006°35'613.4
2017-Nov-11 13:58N 47°25' W 006°39'814.0
2017-Nov-11 13:24N 47°19' W 006°45'814.2
2017-Nov-11 12:52N 47°12' W 006°51'514.0
2017-Nov-11 12:29N 47°07' W 006°54'713.9
2017-Nov-11 11:56N 47°00' W 006°59'614.0
2017-Nov-11 11:30N 46°55' W 007°03'46613.8
2017-Nov-10 01:48N 39°25' W 009°52'413.6
2017-Nov-10 01:31N 39°21' W 009°52'713.7
2017-Nov-10 01:00N 39°14' W 009°52'713.4
2017-Nov-10 00:30N 39°08' W 009°52'713.4
2017-Nov-10 00:00N 39°01' W 009°52'713.4
2017-Nov-09 23:30N 38°54' W 009°52'713.8
2017-Nov-09 23:01N 38°48' W 009°52'713.9
2017-Nov-09 22:31N 38°41' W 009°52'713.8
2017-Nov-09 22:00N 38°34' W 009°50'713.7
2017-Nov-09 21:30N 38°27' W 009°48'713.5
2017-Nov-09 21:00N 38°21' W 009°46'713.4
2017-Nov-09 20:30N 38°14' W 009°44'713.2
2017-Nov-09 19:58N 38°07' W 009°43'613.9
2017-Nov-09 19:30N 38°01' W 009°40'  

Dump ship's entire track history